Terminal Aerodrome Forecast
Issued by NWS

Home | Current Version | Previous Version | Text Only | Print | Product List | Glossary On
Versions: 1 2 3 4 5 6 7 8 9 10 11 12 13 14 15 16 17 18 19 20 21 22 23 24 25 26 27 28 29 30 31 32 33
000
FTUS43 KPAH 252012 AAA
TAFOWB
TAF AMD
KOWB 252012Z 2520/2618 16004KT P6SM VCTS BKN035CB
      TEMPO 2520/2523 VRB10G20KT 2SM +TSRA BKN025CB
     FM252300 22005KT P6SM VCTS BKN030CB
     FM260100 VRB03KT 4SM BR BKN080
     FM261400 19003KT P6SM SCT020=

USA.gov is the U.S. government's official web portal to all federal, state and local government web resources and services.